Känerkinden
Datum - Zeit
TemperaturTaupunktFeuchteSolar Wind aus Richtung WindböenLuftdruck (QFF)RegenRegenstärkeTrend
03.09.2026 - 00.00Uhr18.0 °C12.2 °C69 %0.0 W/m²0.0 km/hWesten0.0 km/h1020.8 hPa0.0 mm0.0 mm/hwechselhaft
03.09.2026 - 00.05Uhr17.8 °C12.0 °C69 %0.0 W/m²0.0 km/hWesten0.0 km/h1020.8 hPa0.0 mm0.0 mm/hwechselhaft
03.09.2026 - 00.10Uhr17.7 °C12.1 °C70 %0.0 W/m²0.0 km/hWesten0.0 km/h1020.8 hPa0.0 mm0.0 mm/hwechselhaft
03.09.2026 - 00.15Uhr17.4 °C11.9 °C70 %0.0 W/m²0.0 km/hWesten0.0 km/h1020.8 hPa0.0 mm0.0 mm/hwechselhaft
03.09.2026 - 00.20Uhr17.2 °C12.1 °C72 %0.0 W/m²0.0 km/hNordwesten0.0 km/h1020.9 hPa0.0 mm0.0 mm/hwechselhaft
03.09.2026 - 00.25Uhr17.1 °C12.0 °C72 %0.0 W/m²0.0 km/hNordosten0.0 km/h1020.9 hPa0.0 mm0.0 mm/hwechselhaft
03.09.2026 - 00.30Uhr17.2 °C11.9 °C71 %0.0 W/m²0.0 km/hNordosten0.0 km/h1020.9 hPa0.0 mm0.0 mm/hwechselhaft
03.09.2026 - 00.35Uhr17.3 °C12.0 °C71 %0.0 W/m²0.0 km/hNordosten0.0 km/h1020.8 hPa0.0 mm0.0 mm/hwechselhaft
03.09.2026 - 00.40Uhr17.2 °C11.9 °C71 %0.0 W/m²0.0 km/hNordosten0.0 km/h1020.8 hPa0.0 mm0.0 mm/hwechselhaft
03.09.2026 - 00.45Uhr17.0 °C11.9 °C72 %0.0 W/m²0.0 km/hNordosten0.0 km/h1020.8 hPa0.0 mm0.0 mm/hwechselhaft
03.09.2026 - 00.50Uhr16.8 °C11.8 °C73 %0.0 W/m²0.0 km/hNordosten0.0 km/h1020.8 hPa0.0 mm0.0 mm/hwechselhaft
03.09.2026 - 00.55Uhr16.6 °C11.7 °C73 %0.0 W/m²0.0 km/hNordosten0.0 km/h1020.7 hPa0.0 mm0.0 mm/hwechselhaft
03.09.2026 - 01.00Uhr16.7 °C11.8 °C73 %0.0 W/m²0.0 km/hNordosten0.0 km/h1020.7 hPa0.0 mm0.0 mm/hwechselhaft
03.09.2026 - 01.05Uhr16.7 °C11.8 °C73 %0.0 W/m²0.0 km/hNordosten0.0 km/h1020.7 hPa0.0 mm0.0 mm/hwechselhaft
03.09.2026 - 01.10Uhr16.6 °C11.8 °C73 %0.0 W/m²0.0 km/hNordosten0.0 km/h1020.8 hPa0.0 mm0.0 mm/hwechselhaft
03.09.2026 - 01.15Uhr16.4 °C11.7 °C74 %0.0 W/m²2.8 km/hWest-NW6.5 km/h1020.9 hPa0.0 mm0.0 mm/hwechselhaft
03.09.2026 - 01.20Uhr16.5 °C11.5 °C72 %0.0 W/m²4.5 km/hWest-NW6.5 km/h1020.9 hPa0.0 mm0.0 mm/hwechselhaft
03.09.2026 - 01.25Uhr16.2 °C11.5 °C73 %0.0 W/m²4.2 km/hSüdwesten6.5 km/h1020.9 hPa0.0 mm0.0 mm/hwechselhaft
03.09.2026 - 01.30Uhr16.5 °C11.6 °C73 %0.0 W/m²2.9 km/hSüd-SW6.5 km/h1020.9 hPa0.0 mm0.0 mm/hwechselhaft
03.09.2026 - 01.35Uhr16.9 °C11.6 °C71 %0.0 W/m²2.4 km/hSüd-SW4.7 km/h1020.9 hPa0.0 mm0.0 mm/hwechselhaft
03.09.2026 - 01.40Uhr16.7 °C11.6 °C72 %0.0 W/m²1.9 km/hSüd-SW3.2 km/h1020.9 hPa0.0 mm0.0 mm/hwechselhaft
03.09.2026 - 01.45Uhr16.6 °C11.5 °C72 %0.0 W/m²3.0 km/hSüd-SW4.7 km/h1020.9 hPa0.0 mm0.0 mm/hwechselhaft
03.09.2026 - 01.50Uhr16.9 °C11.7 °C72 %0.0 W/m²3.9 km/hSüd-SW4.7 km/h1020.8 hPa0.0 mm0.0 mm/hwechselhaft
03.09.2026 - 01.55Uhr17.2 °C11.8 °C70 %0.0 W/m²4.0 km/hSüd-SW4.7 km/h1020.8 hPa0.0 mm0.0 mm/hwechselhaft
03.09.2026 - 02.00Uhr17.2 °C11.8 °C70 %0.0 W/m²3.4 km/hSüd-SW4.7 km/h1020.9 hPa0.0 mm0.0 mm/hwechselhaft
03.09.2026 - 02.05Uhr16.8 °C11.6 °C72 %0.0 W/m²4.9 km/hSüdwesten6.5 km/h1020.9 hPa0.0 mm0.0 mm/hwechselhaft
03.09.2026 - 02.10Uhr16.7 °C11.6 °C72 %0.0 W/m²2.5 km/hSüdwesten4.7 km/h1020.9 hPa0.0 mm0.0 mm/hwechselhaft
03.09.2026 - 02.15Uhr16.4 °C11.4 °C72 %0.0 W/m²2.3 km/hSüdwesten3.2 km/h1020.9 hPa0.0 mm0.0 mm/hwechselhaft
03.09.2026 - 02.20Uhr16.5 °C11.6 °C73 %0.0 W/m²0.8 km/hSüdwesten3.2 km/h1020.9 hPa0.0 mm0.0 mm/hwechselhaft
03.09.2026 - 02.25Uhr16.6 °C11.5 °C72 %0.0 W/m²0.0 km/hSüdwesten0.0 km/h1021.0 hPa0.0 mm0.0 mm/hwechselhaft
03.09.2026 - 02.30Uhr16.5 °C11.5 °C72 %0.0 W/m²0.0 km/hSüdwesten0.0 km/h1020.9 hPa0.0 mm0.0 mm/hwechselhaft
03.09.2026 - 02.35Uhr16.2 °C11.4 °C73 %0.0 W/m²0.0 km/hSüdwesten0.0 km/h1020.9 hPa0.0 mm0.0 mm/hwechselhaft
03.09.2026 - 02.40Uhr15.8 °C11.2 °C74 %0.0 W/m²0.0 km/hSüdwesten0.0 km/h1021.0 hPa0.0 mm0.0 mm/hwechselhaft
03.09.2026 - 02.45Uhr15.7 °C11.3 °C75 %0.0 W/m²0.0 km/hSüdwesten0.0 km/h1020.9 hPa0.0 mm0.0 mm/hwechselhaft
03.09.2026 - 02.50Uhr15.7 °C11.2 °C75 %0.0 W/m²0.0 km/hSüdwesten0.0 km/h1021.0 hPa0.0 mm0.0 mm/hwechselhaft
03.09.2026 - 02.55Uhr15.5 °C11.1 °C75 %0.0 W/m²3.8 km/hWesten6.5 km/h1021.0 hPa0.0 mm0.0 mm/hwechselhaft
03.09.2026 - 03.00Uhr15.6 °C11.1 °C74 %0.0 W/m²4.8 km/hWesten6.5 km/h1021.0 hPa0.0 mm0.0 mm/hwechselhaft
03.09.2026 - 03.05Uhr15.8 °C11.2 °C74 %0.0 W/m²4.1 km/hWesten4.7 km/h1021.0 hPa0.0 mm0.0 mm/hwechselhaft
03.09.2026 - 03.10Uhr16.0 °C11.4 °C74 %0.0 W/m²4.6 km/hWest-NW6.5 km/h1021.0 hPa0.0 mm0.0 mm/hwechselhaft
03.09.2026 - 03.15Uhr16.1 °C11.2 °C72 %0.0 W/m²5.4 km/hWest-NW6.5 km/h1021.0 hPa0.0 mm0.0 mm/hwechselhaft
03.09.2026 - 03.20Uhr16.3 °C11.3 °C72 %0.0 W/m²5.0 km/hWesten6.5 km/h1021.1 hPa0.0 mm0.0 mm/hwechselhaft
03.09.2026 - 03.25Uhr16.2 °C11.4 °C73 %0.0 W/m²3.5 km/hWesten4.7 km/h1021.1 hPa0.0 mm0.0 mm/hwechselhaft
03.09.2026 - 03.30Uhr15.9 °C11.2 °C74 %0.0 W/m²3.9 km/hWesten4.7 km/h1021.1 hPa0.0 mm0.0 mm/hwechselhaft
03.09.2026 - 03.35Uhr15.4 °C10.9 °C74 %0.0 W/m²4.5 km/hWesten6.5 km/h1021.1 hPa0.0 mm0.0 mm/hwechselhaft
03.09.2026 - 03.40Uhr15.3 °C11.0 °C75 %0.0 W/m²5.6 km/hWesten6.5 km/h1021.1 hPa0.0 mm0.0 mm/hwechselhaft
03.09.2026 - 03.45Uhr15.5 °C11.2 °C75 %0.0 W/m²5.9 km/hWesten7.9 km/h1021.1 hPa0.0 mm0.0 mm/hwechselhaft
03.09.2026 - 03.50Uhr15.7 °C11.3 °C75 %0.0 W/m²4.6 km/hWesten6.5 km/h1021.0 hPa0.0 mm0.0 mm/hwechselhaft
03.09.2026 - 03.55Uhr15.7 °C11.3 °C75 %0.0 W/m²5.3 km/hWesten6.5 km/h1021.0 hPa0.0 mm0.0 mm/hwechselhaft
03.09.2026 - 04.00Uhr15.5 °C11.1 °C75 %0.0 W/m²6.3 km/hWesten7.9 km/h1021.0 hPa0.0 mm0.0 mm/hwechselhaft
03.09.2026 - 04.05Uhr15.5 °C11.1 °C75 %0.0 W/m²6.9 km/hWesten7.9 km/h1020.9 hPa0.0 mm0.0 mm/hsonnig
03.09.2026 - 04.10Uhr15.5 °C11.1 °C75 %0.0 W/m²6.9 km/hWesten7.9 km/h1021.0 hPa0.0 mm0.0 mm/hsonnig
03.09.2026 - 04.15Uhr15.5 °C11.1 °C75 %0.0 W/m²6.2 km/hWesten7.9 km/h1021.1 hPa0.0 mm0.0 mm/hsonnig
03.09.2026 - 04.20Uhr15.3 °C11.1 °C76 %0.0 W/m²4.9 km/hWesten6.5 km/h1021.0 hPa0.0 mm0.0 mm/hsonnig
03.09.2026 - 04.25Uhr15.3 °C11.1 °C76 %0.0 W/m²4.8 km/hWesten6.5 km/h1021.1 hPa0.0 mm0.0 mm/hsonnig
03.09.2026 - 04.30Uhr15.4 °C11.2 °C76 %0.0 W/m²3.7 km/hWesten4.7 km/h1021.1 hPa0.0 mm0.0 mm/hsonnig
03.09.2026 - 04.35Uhr15.4 °C11.1 °C75 %0.0 W/m²3.9 km/hWesten4.7 km/h1021.0 hPa0.0 mm0.0 mm/hsonnig
03.09.2026 - 04.40Uhr15.0 °C10.9 °C76 %0.0 W/m²2.5 km/hWesten4.7 km/h1021.0 hPa0.0 mm0.0 mm/hsonnig
03.09.2026 - 04.45Uhr15.1 °C11.1 °C77 %0.0 W/m²2.4 km/hWesten3.2 km/h1021.0 hPa0.0 mm0.0 mm/hsonnig
03.09.2026 - 04.50Uhr15.1 °C11.1 °C77 %0.0 W/m²0.0 km/hWesten0.0 km/h1020.9 hPa0.0 mm0.0 mm/hsonnig
03.09.2026 - 04.55Uhr15.3 °C11.1 °C76 %0.0 W/m²0.0 km/hWesten0.0 km/h1020.9 hPa0.0 mm0.0 mm/hsonnig
03.09.2026 - 05.00Uhr15.4 °C11.2 °C76 %0.0 W/m²0.0 km/hWesten0.0 km/h1021.0 hPa0.0 mm0.0 mm/hsonnig
03.09.2026 - 05.05Uhr15.2 °C11.0 °C76 %0.0 W/m²0.0 km/hWesten0.0 km/h1021.0 hPa0.0 mm0.0 mm/hwechselhaft
03.09.2026 - 05.10Uhr15.2 °C11.0 °C76 %0.0 W/m²0.0 km/hWesten0.0 km/h1021.1 hPa0.0 mm0.0 mm/hwechselhaft
03.09.2026 - 05.15Uhr15.0 °C11.0 °C77 %0.0 W/m²0.0 km/hWesten0.0 km/h1021.1 hPa0.0 mm0.0 mm/hwechselhaft
03.09.2026 - 05.20Uhr14.8 °C10.9 °C77 %0.0 W/m²0.0 km/hWesten0.0 km/h1021.1 hPa0.0 mm0.0 mm/hwechselhaft
03.09.2026 - 05.25Uhr14.6 °C10.8 °C78 %0.0 W/m²0.0 km/hWesten0.0 km/h1021.2 hPa0.0 mm0.0 mm/hwechselhaft
03.09.2026 - 05.30Uhr14.5 °C10.9 °C79 %0.0 W/m²0.0 km/hWesten0.0 km/h1021.1 hPa0.0 mm0.0 mm/hwechselhaft
03.09.2026 - 05.35Uhr14.7 °C11.1 °C79 %0.0 W/m²0.0 km/hWesten0.0 km/h1021.1 hPa0.0 mm0.0 mm/hwechselhaft
03.09.2026 - 05.40Uhr14.8 °C11.0 °C78 %0.0 W/m²0.0 km/hWesten0.0 km/h1021.1 hPa0.0 mm0.0 mm/hwechselhaft
03.09.2026 - 05.45Uhr14.5 °C10.7 °C78 %0.0 W/m²0.0 km/hWesten0.0 km/h1021.1 hPa0.0 mm0.0 mm/hwechselhaft
03.09.2026 - 05.50Uhr14.2 °C10.8 °C80 %0.0 W/m²0.0 km/hWesten0.0 km/h1021.1 hPa0.0 mm0.0 mm/hwechselhaft
03.09.2026 - 05.55Uhr14.1 °C10.7 °C80 %0.0 W/m²0.0 km/hWesten0.0 km/h1021.1 hPa0.0 mm0.0 mm/hwechselhaft
03.09.2026 - 06.00Uhr14.1 °C10.7 °C80 %0.0 W/m²0.0 km/hWesten0.0 km/h1020.9 hPa0.0 mm0.0 mm/hwechselhaft
03.09.2026 - 06.05Uhr14.3 °C10.8 °C80 %0.0 W/m²0.0 km/hWesten0.0 km/h1020.9 hPa0.0 mm0.0 mm/hwechselhaft
03.09.2026 - 06.10Uhr14.3 °C10.8 °C80 %0.0 W/m²0.0 km/hWesten0.0 km/h1020.9 hPa0.0 mm0.0 mm/hwechselhaft
03.09.2026 - 06.15Uhr14.3 °C10.8 °C80 %0.0 W/m²0.0 km/hWesten0.0 km/h1021.0 hPa0.0 mm0.0 mm/hwechselhaft
03.09.2026 - 06.20Uhr14.2 °C10.7 °C79 %0.0 W/m²0.0 km/hWesten0.0 km/h1021.0 hPa0.0 mm0.0 mm/hwechselhaft
03.09.2026 - 06.25Uhr14.2 °C10.7 °C80 %0.0 W/m²0.0 km/hWesten0.0 km/h1021.0 hPa0.0 mm0.0 mm/hwechselhaft
03.09.2026 - 06.30Uhr14.0 °C10.6 °C80 %0.0 W/m²0.0 km/hWesten0.0 km/h1021.1 hPa0.0 mm0.0 mm/hwechselhaft
03.09.2026 - 06.35Uhr14.1 °C10.7 °C80 %0.0 W/m²0.0 km/hWesten0.0 km/h1021.1 hPa0.0 mm0.0 mm/hwechselhaft
03.09.2026 - 06.40Uhr13.8 °C10.5 °C80 %0.0 W/m²0.0 km/hWesten0.0 km/h1021.2 hPa0.0 mm0.0 mm/hwechselhaft
03.09.2026 - 06.45Uhr13.5 °C10.5 °C82 %0.0 W/m²0.0 km/hWesten0.0 km/h1021.3 hPa0.0 mm0.0 mm/hwechselhaft
03.09.2026 - 06.50Uhr13.4 °C10.4 °C82 %5.0 W/m²0.0 km/hWesten0.0 km/h1021.3 hPa0.0 mm0.0 mm/hwechselhaft
03.09.2026 - 06.55Uhr13.3 °C10.4 °C82 %5.0 W/m²0.0 km/hWesten0.0 km/h1021.3 hPa0.0 mm0.0 mm/hwechselhaft
03.09.2026 - 07.00Uhr13.3 °C10.3 °C82 %9.0 W/m²0.0 km/hWesten0.0 km/h1021.4 hPa0.0 mm0.0 mm/hwechselhaft
03.09.2026 - 07.05Uhr13.5 °C10.5 °C82 %12.0 W/m²0.0 km/hWesten0.0 km/h1021.4 hPa0.0 mm0.0 mm/hwechselhaft
03.09.2026 - 07.10Uhr13.8 °C10.6 °C81 %16.0 W/m²0.0 km/hWesten0.0 km/h1021.3 hPa0.0 mm0.0 mm/hwechselhaft
03.09.2026 - 07.15Uhr13.8 °C10.6 °C81 %21.0 W/m²0.0 km/hWesten0.0 km/h1021.2 hPa0.0 mm0.0 mm/hwechselhaft
03.09.2026 - 07.20Uhr14.0 °C10.8 °C81 %35.0 W/m²0.0 km/hWesten0.0 km/h1021.3 hPa0.0 mm0.0 mm/hwechselhaft
03.09.2026 - 07.25Uhr14.4 °C10.9 °C80 %37.0 W/m²0.0 km/hNordosten0.0 km/h1021.3 hPa0.0 mm0.0 mm/hwechselhaft
03.09.2026 - 07.30Uhr14.7 °C11.1 °C79 %51.0 W/m²0.0 km/hNordosten0.0 km/h1021.5 hPa0.0 mm0.0 mm/hwechselhaft
03.09.2026 - 07.35Uhr14.9 °C11.0 °C78 %58.0 W/m²0.0 km/hNordosten0.0 km/h1021.5 hPa0.0 mm0.0 mm/hwechselhaft
03.09.2026 - 07.40Uhr14.8 °C11.0 °C78 %62.0 W/m²0.0 km/hNordosten0.0 km/h1021.6 hPa0.0 mm0.0 mm/hwechselhaft
03.09.2026 - 07.45Uhr14.8 °C11.0 °C78 %77.0 W/m²0.0 km/hNordosten0.0 km/h1021.7 hPa0.0 mm0.0 mm/hwechselhaft
03.09.2026 - 07.50Uhr14.9 °C11.1 °C78 %104.0 W/m²0.0 km/hNordosten0.0 km/h1021.7 hPa0.0 mm0.0 mm/hwechselhaft
03.09.2026 - 07.55Uhr15.1 °C11.3 °C78 %109.0 W/m²0.0 km/hNordosten0.0 km/h1021.8 hPa0.0 mm0.0 mm/hwechselhaft
03.09.2026 - 08.00Uhr15.3 °C11.3 °C77 %123.0 W/m²0.0 km/hNordosten0.0 km/h1021.8 hPa0.0 mm0.0 mm/hwechselhaft
03.09.2026 - 08.05Uhr15.5 °C11.5 °C77 %127.0 W/m²1.2 km/hNordosten3.2 km/h1021.8 hPa0.0 mm0.0 mm/hwechselhaft
03.09.2026 - 08.10Uhr15.8 °C11.6 °C76 %141.0 W/m²0.6 km/hNordosten1.4 km/h1021.8 hPa0.0 mm0.0 mm/hwechselhaft
03.09.2026 - 08.15Uhr16.0 °C11.7 °C75 %171.0 W/m²0.0 km/hNordosten0.0 km/h1021.9 hPa0.0 mm0.0 mm/hwechselhaft
03.09.2026 - 08.20Uhr16.2 °C11.8 °C75 %199.0 W/m²0.0 km/hNordosten0.0 km/h1022.0 hPa0.0 mm0.0 mm/hwechselhaft
03.09.2026 - 08.25Uhr16.4 °C11.9 °C75 %214.0 W/m²0.0 km/hNordosten0.0 km/h1022.0 hPa0.0 mm0.0 mm/hwechselhaft
03.09.2026 - 08.30Uhr16.9 °C12.0 °C73 %234.0 W/m²0.1 km/hNordosten1.4 km/h1021.9 hPa0.0 mm0.0 mm/hwechselhaft
03.09.2026 - 08.35Uhr17.3 °C12.2 °C72 %246.0 W/m²1.6 km/hOsten3.2 km/h1021.8 hPa0.0 mm0.0 mm/hwechselhaft
03.09.2026 - 08.40Uhr17.5 °C12.4 °C72 %262.0 W/m²1.8 km/hOst-SO3.2 km/h1021.7 hPa0.0 mm0.0 mm/hwechselhaft
03.09.2026 - 08.45Uhr17.6 °C12.3 °C71 %276.0 W/m²1.9 km/hOst-SO3.2 km/h1021.7 hPa0.0 mm0.0 mm/hwechselhaft
03.09.2026 - 08.50Uhr17.7 °C12.0 °C70 %285.0 W/m²1.0 km/hOst-SO3.2 km/h1021.6 hPa0.0 mm0.0 mm/hwechselhaft
03.09.2026 - 08.55Uhr17.9 °C11.9 °C68 %288.0 W/m²0.2 km/hOst-SO1.4 km/h1021.7 hPa0.0 mm0.0 mm/hwechselhaft
03.09.2026 - 09.00Uhr18.1 °C11.8 °C67 %315.0 W/m²0.2 km/hOst-SO1.4 km/h1021.7 hPa0.0 mm0.0 mm/hwechselhaft
03.09.2026 - 09.05Uhr18.3 °C11.7 °C65 %329.0 W/m²0.5 km/hOst-SO1.4 km/h1021.7 hPa0.0 mm0.0 mm/hwechselhaft
03.09.2026 - 09.10Uhr18.4 °C11.7 °C65 %345.0 W/m²0.9 km/hOst-SO3.2 km/h1021.6 hPa0.0 mm0.0 mm/hwechselhaft
03.09.2026 - 09.15Uhr18.6 °C12.0 °C65 %360.0 W/m²0.0 km/hNordosten0.0 km/h1021.6 hPa0.0 mm0.0 mm/hwechselhaft
03.09.2026 - 09.20Uhr18.8 °C12.1 °C65 %374.0 W/m²0.0 km/hNordosten0.0 km/h1021.6 hPa0.0 mm0.0 mm/hwechselhaft
03.09.2026 - 09.25Uhr19.1 °C12.3 °C65 %390.0 W/m²0.0 km/hNordosten0.0 km/h1021.5 hPa0.0 mm0.0 mm/hwechselhaft
03.09.2026 - 09.30Uhr19.3 °C12.0 °C62 %401.0 W/m²0.0 km/hNordwesten0.0 km/h1021.5 hPa0.0 mm0.0 mm/hwechselhaft
03.09.2026 - 09.35Uhr19.6 °C12.2 °C62 %404.0 W/m²0.0 km/hNordwesten0.0 km/h1021.5 hPa0.0 mm0.0 mm/hwechselhaft
03.09.2026 - 09.40Uhr19.8 °C12.0 °C60 %397.0 W/m²0.0 km/hWest-SW0.0 km/h1021.5 hPa0.0 mm0.0 mm/hwechselhaft
03.09.2026 - 09.45Uhr19.9 °C12.0 °C60 %397.0 W/m²0.0 km/hSüd-SO0.0 km/h1021.6 hPa0.0 mm0.0 mm/hwechselhaft
03.09.2026 - 09.50Uhr20.2 °C11.8 °C59 %403.0 W/m²3.7 km/hWesten7.9 km/h1021.6 hPa0.0 mm0.0 mm/hwechselhaft
03.09.2026 - 09.55Uhr20.5 °C12.1 °C58 %394.0 W/m²5.0 km/hWesten7.9 km/h1021.7 hPa0.0 mm0.0 mm/hwechselhaft
03.09.2026 - 10.00Uhr20.8 °C12.6 °C59 %392.0 W/m²5.6 km/hWesten7.9 km/h1021.8 hPa0.0 mm0.0 mm/hwechselhaft
03.09.2026 - 10.05Uhr20.9 °C12.6 °C59 %385.0 W/m²6.3 km/hWesten7.9 km/h1022.0 hPa0.0 mm0.0 mm/hwechselhaft
03.09.2026 - 10.10Uhr21.3 °C12.7 °C58 %352.0 W/m²7.8 km/hWesten11.2 km/h1022.1 hPa0.0 mm0.0 mm/hwechselhaft
03.09.2026 - 10.15Uhr21.3 °C12.4 °C57 %343.0 W/m²9.6 km/hWest-NW13.0 km/h1022.1 hPa0.0 mm0.0 mm/hwechselhaft
03.09.2026 - 10.20Uhr21.3 °C12.2 °C56 %404.0 W/m²9.5 km/hWest-NW16.2 km/h1022.0 hPa0.0 mm0.0 mm/hwechselhaft
03.09.2026 - 10.25Uhr21.4 °C12.2 °C56 %482.0 W/m²8.6 km/hNordwesten13.0 km/h1021.9 hPa0.0 mm0.0 mm/hwechselhaft
03.09.2026 - 10.30Uhr21.4 °C11.9 °C55 %529.0 W/m²6.1 km/hWest-SW9.7 km/h1021.7 hPa0.0 mm0.0 mm/hwechselhaft
03.09.2026 - 10.35Uhr21.4 °C11.9 °C55 %559.0 W/m²7.7 km/hWesten14.4 km/h1021.7 hPa0.0 mm0.0 mm/hwechselhaft
03.09.2026 - 10.40Uhr21.7 °C11.7 °C53 %570.0 W/m²9.3 km/hWest-NW13.0 km/h1021.7 hPa0.0 mm0.0 mm/hwechselhaft
03.09.2026 - 10.45Uhr21.8 °C11.8 °C53 %580.0 W/m²7.8 km/hWest-NW13.0 km/h1021.8 hPa0.0 mm0.0 mm/hwechselhaft
03.09.2026 - 10.50Uhr22.0 °C12.0 °C53 %591.0 W/m²8.5 km/hWest-NW11.2 km/h1021.8 hPa0.0 mm0.0 mm/hwechselhaft
03.09.2026 - 10.55Uhr22.1 °C12.1 °C53 %601.0 W/m²8.6 km/hWesten14.4 km/h1021.9 hPa0.0 mm0.0 mm/hwechselhaft
03.09.2026 - 11.00Uhr22.2 °C12.0 °C52 %608.0 W/m²8.4 km/hWest-NW14.4 km/h1021.9 hPa0.0 mm0.0 mm/hwechselhaft
03.09.2026 - 11.05Uhr22.1 °C11.9 °C52 %621.0 W/m²8.2 km/hNordwesten14.4 km/h1021.8 hPa0.0 mm0.0 mm/hsonnig
03.09.2026 - 11.10Uhr22.3 °C12.3 °C53 %626.0 W/m²10.5 km/hWesten14.4 km/h1021.8 hPa0.0 mm0.0 mm/hsonnig